Time;durP1;ratioP1;P1;durP2;ratioP2;P2;SDS_P1;SDS_P2;PMS_P1;PMS_P2;Temp;Humidity;BMP_temperature;BMP_pressure;BME280_temperature;BME280_humidity;BME280_pressure;Samples;Min_cycle;Max_cycle;Signal;HPM_P1;HPM_P2
2023/06/05 00:02:17;;;;;;;16.75;6.15;;;9.90;99.90;;;;;;5097184;28;20374;-74
2023/06/05 00:04:43;;;;;;;16.48;7.25;;;9.90;99.90;;;;;;5063943;28;20506;-74
2023/06/05 00:07:09;;;;;;;17.77;7.85;;;9.90;99.90;;;;;;5115498;28;20443;-74
2023/06/05 00:09:35;;;;;;;18.15;6.75;;;9.90;99.90;;;;;;5097553;28;20047;-74
2023/06/05 00:12:01;;;;;;;16.02;6.40;;;9.80;99.90;;;;;;5115801;28;20433;-75
2023/06/05 00:14:26;;;;;;;17.15;7.70;;;9.80;99.90;;;;;;5097475;28;20040;-74
2023/06/05 00:16:52;;;;;;;18.77;7.25;;;9.80;99.90;;;;;;5115343;28;20100;-74
2023/06/05 00:19:18;;;;;;;17.00;7.05;;;9.70;99.90;;;;;;5115009;28;20060;-75
2023/06/05 00:21:44;;;;;;;17.80;7.38;;;9.70;99.90;;;;;;5097505;28;20096;-75
2023/06/05 00:24:09;;;;;;;19.95;7.70;;;9.70;99.90;;;;;;5115899;28;20044;-74
2023/06/05 00:26:35;;;;;;;17.00;7.60;;;9.70;99.90;;;;;;5117247;28;20039;-75
2023/06/05 00:29:01;;;;;;;18.25;7.03;;;9.70;99.90;;;;;;5117472;28;20048;-74
2023/06/05 00:31:27;;;;;;;17.92;7.50;;;9.60;99.90;;;;;;5097982;28;20396;-74
2023/06/05 00:33:53;;;;;;;20.98;8.60;;;9.60;99.90;;;;;;5097519;28;20032;-74
2023/06/05 00:36:22;;;;;;;15.52;7.07;;;9.60;99.90;;;;;;5115980;28;20043;-73
2023/06/05 00:38:49;;;;;;;19.33;8.10;;;9.60;99.90;;;;;;5098878;28;20058;-75
2023/06/05 00:41:14;;;;;;;17.27;7.20;;;9.50;99.90;;;;;;5116183;28;20043;-74
2023/06/05 00:43:40;;;;;;;19.65;7.45;;;9.50;99.90;;;;;;5097604;28;20469;-74
2023/06/05 00:46:07;;;;;;;21.48;8.27;;;9.50;99.90;;;;;;5097688;28;20057;-74
2023/06/05 00:48:34;;;;;;;21.35;8.70;;;9.40;99.90;;;;;;5116132;28;20130;-73
2023/06/05 00:51:00;;;;;;;24.27;8.02;;;9.40;99.90;;;;;;5098509;28;20040;-73
2023/06/05 00:53:26;;;;;;;18.77;7.75;;;9.40;99.90;;;;;;5082759;28;20117;-75
2023/06/05 00:55:52;;;;;;;22.45;8.13;;;9.30;99.90;;;;;;5097292;28;20048;-74
2023/06/05 00:58:19;;;;;;;18.95;7.95;;;9.30;99.90;;;;;;5114578;28;20130;-74
2023/06/05 01:00:45;;;;;;;22.00;8.80;;;9.30;99.90;;;;;;5080020;28;20530;-74
2023/06/05 01:03:12;;;;;;;22.88;8.85;;;9.30;99.90;;;;;;5114444;28;20040;-75
2023/06/05 01:05:38;;;;;;;20.05;7.75;;;9.20;99.90;;;;;;5114175;28;20055;-74
2023/06/05 01:08:05;;;;;;;26.50;9.77;;;9.20;99.90;;;;;;5079575;28;20055;-73
2023/06/05 01:10:32;;;;;;;20.25;8.65;;;9.20;99.90;;;;;;5114032;28;20051;-73
2023/06/05 01:13:08;;;;;;;23.30;7.43;;;9.20;99.90;;;;;;5114282;28;20070;-75
2023/06/05 01:15:36;;;;;;;19.73;7.38;;;9.10;99.90;;;;;;5096729;28;20058;-74
2023/06/05 01:18:02;;;;;;;22.05;8.10;;;9.10;99.90;;;;;;5100174;28;20039;-75
2023/06/05 01:20:35;;;;;;;19.73;8.38;;;9.10;99.90;;;;;;5100254;28;20599;-77
2023/06/05 01:23:03;;;;;;;22.63;8.77;;;9.10;99.90;;;;;;5118144;28;20062;-74
2023/06/05 01:25:29;;;;;;;21.33;8.05;;;9.10;99.90;;;;;;5118013;28;20051;-78
2023/06/05 01:28:02;;;;;;;20.42;7.78;;;9.00;99.90;;;;;;5099930;28;20036;-72
2023/06/05 01:30:34;;;;;;;21.35;8.18;;;9.00;99.90;;;;;;5066592;28;20108;-74
2023/06/05 01:33:12;;;;;;;23.42;9.10;;;9.00;99.90;;;;;;5118011;28;20048;-73
2023/06/05 01:35:40;;;;;;;22.15;7.22;;;8.90;99.90;;;;;;5118661;28;20078;-73
2023/06/05 01:38:09;;;;;;;21.65;8.98;;;8.90;99.90;;;;;;5117869;28;20049;-75
2023/06/05 01:40:36;;;;;;;20.05;7.78;;;8.90;99.90;;;;;;5117602;28;20055;-74
2023/06/05 01:43:03;;;;;;;24.98;9.65;;;8.90;99.90;;;;;;5100319;28;20167;-74
2023/06/05 01:45:30;;;;;;;24.48;8.55;;;8.80;99.90;;;;;;5118153;28;20051;-75
2023/06/05 01:47:57;;;;;;;21.27;8.07;;;8.80;99.90;;;;;;5100554;28;20130;-74
2023/06/05 01:50:23;;;;;;;25.45;8.32;;;8.70;99.90;;;;;;5117525;28;20150;-76
2023/06/05 01:52:49;;;;;;;22.73;8.05;;;8.70;99.90;;;;;;5099342;28;20108;-74
2023/06/05 01:55:26;;;;;;;19.40;8.27;;;8.70;99.90;;;;;;5082289;28;20048;-74
2023/06/05 01:57:52;;;;;;;26.20;8.52;;;8.70;99.90;;;;;;5099363;28;20083;-74
2023/06/05 02:00:18;;;;;;;20.63;8.23;;;8.70;99.90;;;;;;5117216;28;20051;-74
2023/06/05 02:02:47;;;;;;;28.20;9.32;;;8.70;99.90;;;;;;5117338;28;20126;-74
2023/06/05 02:05:22;;;;;;;23.55;9.60;;;8.70;99.90;;;;;;5119014;28;20040;-74
2023/06/05 02:07:53;;;;;;;25.08;9.88;;;8.60;99.90;;;;;;5083777;28;20061;-74
2023/06/05 02:10:19;;;;;;;23.20;8.90;;;8.60;99.90;;;;;;5117968;28;20048;-75
2023/06/05 02:12:46;;;;;;;25.40;9.18;;;8.60;99.90;;;;;;5118130;28;20122;-74
2023/06/05 02:15:13;;;;;;;25.67;9.17;;;8.60;99.90;;;;;;5081941;28;20046;-73
2023/06/05 02:17:49;;;;;;;24.65;7.93;;;8.60;99.90;;;;;;5065677;28;20075;-73
2023/06/05 02:20:16;;;;;;;24.13;8.63;;;8.50;99.90;;;;;;5116916;28;20051;-74
2023/06/05 02:22:42;;;;;;;25.10;8.60;;;8.50;99.90;;;;;;5098579;28;20130;-74
2023/06/05 02:25:10;;;;;;;26.42;8.23;;;8.50;99.90;;;;;;5082121;28;20079;-74
2023/06/05 02:27:36;;;;;;;21.33;7.72;;;8.50;99.90;;;;;;5115796;28;20177;-77
2023/06/05 02:30:03;;;;;;;27.03;8.90;;;8.50;99.90;;;;;;5098992;28;20035;-73
2023/06/05 02:32:28;;;;;;;24.77;8.82;;;8.50;99.90;;;;;;5098676;28;20347;-75
2023/06/05 02:34:56;;;;;;;26.52;9.55;;;8.50;99.90;;;;;;5116545;28;20079;-74
2023/06/05 02:37:27;;;;;;;26.90;10.70;;;8.40;99.90;;;;;;5082012;28;20549;-75
2023/06/05 02:39:53;;;;;;;27.55;10.07;;;8.40;99.90;;;;;;5117004;28;20053;-74
2023/06/05 02:42:19;;;;;;;23.63;8.55;;;8.40;99.90;;;;;;5116660;28;20044;-74
2023/06/05 02:44:46;;;;;;;25.38;8.73;;;8.40;99.90;;;;;;5116428;28;20046;-73
2023/06/05 02:47:12;;;;;;;26.25;9.25;;;8.30;99.90;;;;;;5098210;28;20051;-74
2023/06/05 02:49:38;;;;;;;26.15;9.15;;;8.30;99.90;;;;;;5098217;28;20043;-74
2023/06/05 02:52:05;;;;;;;26.52;9.18;;;8.30;99.90;;;;;;5097827;28;20050;-74
2023/06/05 02:54:30;;;;;;;24.98;9.02;;;8.30;99.90;;;;;;5098123;28;20047;-73
2023/06/05 02:57:00;;;;;;;27.30;10.50;;;8.30;99.90;;;;;;5097987;28;20485;-75
2023/06/05 02:59:27;;;;;;;28.67;8.82;;;8.30;99.90;;;;;;5116260;28;20046;-75
2023/06/05 03:01:53;;;;;;;;;;;8.20;99.90;;;;;;5099055;28;20528;-74
2023/06/05 03:04:22;;;;;;;28.90;8.80;;;8.20;99.90;;;;;;5115578;28;19966;-74
2023/06/05 03:06:48;;;;;;;26.20;8.85;;;8.20;99.90;;;;;;5116654;28;20047;-74
2023/06/05 03:09:14;;;;;;;27.23;10.35;;;8.20;99.90;;;;;;5097817;28;20520;-73
2023/06/05 03:11:40;;;;;;;29.42;10.05;;;8.30;99.90;;;;;;5098628;28;20047;-74
2023/06/05 03:14:06;;;;;;;26.02;8.82;;;8.20;99.90;;;;;;5115288;28;20122;-74
2023/06/05 03:16:37;;;;;;;26.55;9.65;;;8.20;99.90;;;;;;5115933;28;20052;-75
2023/06/05 03:19:03;;;;;;;22.50;8.02;;;8.20;99.90;;;;;;5081025;28;20137;-73
2023/06/05 03:21:30;;;;;;;26.38;9.32;;;8.20;99.90;;;;;;5115681;28;20044;-74
2023/06/05 03:23:56;;;;;;;27.10;9.32;;;8.20;99.90;;;;;;5080758;28;20385;-74
2023/06/05 03:26:22;;;;;;;25.13;9.38;;;8.20;99.90;;;;;;5115594;28;20047;-75
2023/06/05 03:28:49;;;;;;;27.70;9.23;;;8.20;99.90;;;;;;5064361;28;20397;-75
2023/06/05 03:31:14;;;;;;;33.30;12.32;;;8.20;99.90;;;;;;5097317;28;20477;-73
2023/06/05 03:33:40;;;;;;;25.83;10.50;;;8.20;99.90;;;;;;5064039;28;20100;-75
2023/06/05 03:36:06;;;;;;;24.92;9.25;;;8.30;99.90;;;;;;5115302;28;20040;-74
2023/06/05 03:38:32;;;;;;;28.37;9.13;;;8.30;99.90;;;;;;5080340;28;20055;-74
2023/06/05 03:40:58;;;;;;;27.90;8.73;;;8.30;99.90;;;;;;5115278;28;20289;-75
2023/06/05 03:43:24;;;;;;;32.70;9.13;;;8.30;99.90;;;;;;5097184;28;20070;-75
2023/06/05 03:45:51;;;;;;;27.17;8.40;;;8.40;99.90;;;;;;5081332;28;20051;-75
2023/06/05 03:48:20;;;;;;;23.55;10.52;;;8.40;99.90;;;;;;5097345;28;20130;-74
2023/06/05 03:50:46;;;;;;;23.52;9.07;;;8.40;99.90;;;;;;5115075;28;20048;-73
2023/06/05 03:53:13;;;;;;;21.80;8.48;;;8.40;99.90;;;;;;5080044;28;20124;-74
2023/06/05 03:55:45;;;;;;;25.45;8.88;;;8.40;99.90;;;;;;5080013;28;20488;-74
2023/06/05 03:58:13;;;;;;;23.42;8.48;;;8.40;99.90;;;;;;5115430;28;20043;-76
2023/06/05 04:00:44;;;;;;;24.10;8.90;;;8.50;99.90;;;;;;5096793;28;20484;-75
2023/06/05 04:03:13;;;;;;;25.75;8.80;;;8.40;99.90;;;;;;5065647;28;20108;-75
2023/06/05 04:05:39;;;;;;;24.48;8.70;;;8.50;99.90;;;;;;5115803;28;20069;-74
2023/06/05 04:08:06;;;;;;;22.10;7.95;;;8.60;99.90;;;;;;5115082;28;20550;-74
2023/06/05 04:10:32;;;;;;;25.65;8.75;;;8.60;99.90;;;;;;5097828;28;20491;-75
2023/06/05 04:12:58;;;;;;;20.95;7.88;;;8.60;99.90;;;;;;5116068;28;20115;-75
2023/06/05 04:15:24;;;;;;;24.63;8.70;;;8.70;99.90;;;;;;5114738;28;20077;-76
2023/06/05 04:17:50;;;;;;;28.60;9.17;;;8.70;99.90;;;;;;5079964;28;20054;-76
2023/06/05 04:20:16;;;;;;;24.67;8.30;;;8.80;99.90;;;;;;5115283;28;20060;-74
2023/06/05 04:22:42;;;;;;;23.38;8.23;;;8.90;99.90;;;;;;5114637;28;20047;-76
2023/06/05 04:25:12;;;;;;;22.83;8.52;;;8.90;99.90;;;;;;5096519;28;20524;-75
2023/06/05 04:27:45;;;;;;;26.05;8.25;;;9.00;99.90;;;;;;5097158;28;20047;-75
2023/06/05 04:30:13;;;;;;;21.52;8.23;;;9.00;99.90;;;;;;5115060;28;20051;-75
2023/06/05 04:32:41;;;;;;;20.83;8.70;;;9.10;99.90;;;;;;5096153;28;20043;-74
2023/06/05 04:35:08;;;;;;;20.75;7.25;;;9.20;99.90;;;;;;5114125;28;20039;-74
2023/06/05 04:37:37;;;;;;;;;;;9.20;99.90;;;;;;5114639;28;20055;-74
2023/06/05 04:40:09;;;;;;;19.33;7.18;;;9.30;99.90;;;;;;5095904;28;20010;-74
2023/06/05 04:42:36;;;;;;;28.33;8.85;;;9.30;99.90;;;;;;5113906;28;20123;-74
2023/06/05 04:45:04;;;;;;;19.50;8.63;;;9.40;99.90;;;;;;5079210;28;20392;-78
2023/06/05 04:47:31;;;;;;;22.23;7.25;;;9.50;99.90;;;;;;5114565;28;20055;-73
2023/06/05 04:50:05;;;;;;;18.83;7.57;;;9.50;99.90;;;;;;5114126;28;20047;-75
2023/06/05 04:52:39;;;;;;;23.50;7.45;;;9.60;99.90;;;;;;5114243;28;20120;-80
2023/06/05 04:55:06;;;;;;;18.10;6.68;;;9.70;99.90;;;;;;5113998;28;20047;-73
2023/06/05 04:57:32;;;;;;;17.33;7.68;;;9.80;99.90;;;;;;5114901;28;20089;-75
2023/06/05 04:59:58;;;;;;;18.27;6.63;;;9.80;99.90;;;;;;5114724;28;20171;-75
2023/06/05 05:02:23;;;;;;;18.05;6.75;;;9.90;99.90;;;;;;5096208;28;20047;-75
2023/06/05 05:04:49;;;;;;;18.33;7.10;;;9.90;99.90;;;;;;5079347;28;20036;-75
2023/06/05 05:07:16;;;;;;;19.02;7.50;;;10.00;99.90;;;;;;5096389;28;20043;-75
2023/06/05 05:09:46;;;;;;;14.75;7.35;;;10.10;99.90;;;;;;5096101;28;20090;-74
2023/06/05 05:12:11;;;;;;;20.40;9.65;;;10.10;99.90;;;;;;5113905;28;20134;-74
2023/06/05 05:14:38;;;;;;;19.98;7.32;;;10.20;99.90;;;;;;5113868;28;20130;-73
2023/06/05 05:17:04;;;;;;;18.63;8.45;;;10.20;99.90;;;;;;5096658;28;20456;-73
2023/06/05 05:19:30;;;;;;;16.50;7.23;;;10.30;99.90;;;;;;5075691;28;20455;-74
2023/06/05 05:21:56;;;;;;;22.98;9.07;;;10.30;99.90;;;;;;5092409;28;20286;-74
2023/06/05 05:24:23;;;;;;;20.30;7.25;;;10.30;99.90;;;;;;5094144;28;20044;-74
2023/06/05 05:26:49;;;;;;;;;;;10.40;99.90;;;;;;5093134;28;20123;-74
2023/06/05 05:29:15;;;;;;;16.98;7.38;;;10.50;99.90;;;;;;5075206;28;19927;-73
2023/06/05 05:31:41;;;;;;;16.75;6.40;;;10.50;99.90;;;;;;5093534;28;20048;-74
2023/06/05 05:34:06;;;;;;;15.60;6.63;;;10.60;99.90;;;;;;5093298;28;20508;-73
2023/06/05 05:36:33;;;;;;;17.88;6.97;;;10.60;99.90;;;;;;5075424;28;20044;-74
2023/06/05 05:39:00;;;;;;;15.93;8.10;;;10.60;99.90;;;;;;5075622;28;20063;-75
2023/06/05 05:41:27;;;;;;;15.60;6.60;;;10.70;99.90;;;;;;5093876;28;20357;-73
2023/06/05 05:43:52;;;;;;;14.75;7.15;;;10.80;99.90;;;;;;5091995;28;20048;-74
2023/06/05 05:46:18;;;;;;;16.27;7.10;;;10.80;99.90;;;;;;5093057;28;20058;-75
2023/06/05 05:48:44;;;;;;;13.60;6.05;;;10.90;99.90;;;;;;5093139;28;20044;-73
2023/06/05 05:51:10;;;;;;;16.00;7.15;;;10.90;99.90;;;;;;5093139;28;20051;-75
2023/06/05 05:53:36;;;;;;;13.90;5.90;;;11.00;99.90;;;;;;5091950;28;20051;-71
2023/06/05 05:56:02;;;;;;;13.27;6.70;;;11.10;99.90;;;;;;5075279;28;20048;-76
2023/06/05 05:58:28;;;;;;;11.23;5.78;;;11.10;99.90;;;;;;5092032;28;20523;-74
2023/06/05 06:00:54;;;;;;;10.73;5.97;;;11.20;99.90;;;;;;5093047;28;20079;-72
2023/06/05 06:03:20;;;;;;;12.80;5.47;;;11.20;99.90;;;;;;5077807;28;20043;-72
2023/06/05 06:05:46;;;;;;;12.15;4.25;;;11.30;99.90;;;;;;5078586;28;20092;-72
2023/06/05 06:08:12;;;;;;;10.90;5.13;;;11.40;99.90;;;;;;5078777;28;20055;-76
2023/06/05 06:10:37;;;;;;;9.90;3.72;;;11.50;99.90;;;;;;5096687;28;20428;-75
2023/06/05 06:13:04;;;;;;;12.05;4.32;;;11.50;99.90;;;;;;5095251;28;20036;-74
2023/06/05 06:15:31;;;;;;;10.52;5.13;;;11.60;99.90;;;;;;5096329;28;20128;-74
2023/06/05 06:17:57;;;;;;;16.67;5.05;;;11.60;99.90;;;;;;5078875;28;20056;-72
2023/06/05 06:20:23;;;;;;;10.32;3.63;;;11.60;99.90;;;;;;5094905;28;20060;-73
2023/06/05 06:22:49;;;;;;;13.33;4.33;;;11.70;99.90;;;;;;5096382;28;20131;-74
2023/06/05 06:25:16;;;;;;;8.10;4.05;;;11.80;99.90;;;;;;5096351;28;20083;-74
2023/06/05 06:27:43;;;;;;;10.98;4.50;;;11.90;99.90;;;;;;5078370;28;20059;-73
2023/06/05 06:30:10;;;;;;;9.75;4.35;;;11.90;99.90;;;;;;5078362;28;20077;-75
2023/06/05 06:32:36;;;;;;;12.90;4.43;;;12.00;99.90;;;;;;5096866;28;20048;-74
2023/06/05 06:35:02;;;;;;;9.30;4.10;;;12.10;99.90;;;;;;5079484;28;20040;-74
2023/06/05 06:37:28;;;;;;;10.50;4.38;;;12.20;99.90;;;;;;5096150;28;20040;-74
2023/06/05 06:39:53;;;;;;;10.15;4.75;;;12.30;99.90;;;;;;5096119;28;20398;-73
2023/06/05 06:42:19;;;;;;;9.82;4.32;;;12.40;99.90;;;;;;5079008;28;20044;-76
2023/06/05 06:44:45;;;;;;;10.05;4.20;;;12.50;99.90;;;;;;5095942;28;20040;-75
2023/06/05 06:47:11;;;;;;;10.13;5.15;;;12.50;99.90;;;;;;5095891;28;20098;-76
2023/06/05 06:49:38;;;;;;;12.57;4.13;;;12.50;99.90;;;;;;5095022;28;20443;-77
2023/06/05 06:52:04;;;;;;;10.10;4.45;;;12.60;99.90;;;;;;5078890;28;20048;-74
2023/06/05 06:54:30;;;;;;;9.18;4.00;;;12.70;99.90;;;;;;5095813;28;20039;-80
2023/06/05 06:56:56;;;;;;;10.40;4.13;;;12.80;99.90;;;;;;5077563;28;20490;-77
2023/06/05 06:59:23;;;;;;;8.48;4.95;;;12.80;99.90;;;;;;5094735;28;20386;-75
2023/06/05 07:02:14;;;;;;;9.10;4.10;;;12.80;99.90;;;;;;5077898;28;20374;-75
2023/06/05 07:04:42;;;;;;;13.02;3.63;;;12.80;99.90;;;;;;5094904;28;20324;-74
2023/06/05 07:07:12;;;;;;;9.95;4.10;;;12.90;99.90;;;;;;5095640;28;20055;-75
2023/06/05 07:09:39;;;;;;;9.38;3.97;;;13.00;99.90;;;;;;5094640;28;20055;-73
2023/06/05 07:12:05;;;;;;;8.48;4.55;;;13.10;99.90;;;;;;5094315;28;20379;-73
2023/06/05 07:14:34;;;;;;;11.18;4.88;;;13.20;99.90;;;;;;5094558;28;20435;-74
2023/06/05 07:17:00;;;;;;;10.93;4.05;;;13.40;99.90;;;;;;5095439;28;20131;-76
2023/06/05 07:19:30;;;;;;;8.38;4.03;;;13.40;99.90;;;;;;5094134;28;20117;-76
2023/06/05 07:21:58;;;;;;;12.50;4.88;;;13.60;99.90;;;;;;5094634;28;20470;-76
2023/06/05 07:24:25;;;;;;;11.07;4.95;;;13.70;99.90;;;;;;5094821;28;20375;-75
2023/06/05 07:26:55;;;;;;;10.23;4.57;;;13.70;99.90;;;;;;5095235;28;20044;-75
2023/06/05 07:29:23;;;;;;;13.32;5.10;;;13.80;99.90;;;;;;5095067;28;20043;-75
2023/06/05 07:31:49;;;;;;;9.45;4.68;;;14.00;99.90;;;;;;5077891;28;20059;-73
2023/06/05 07:34:15;;;;;;;10.50;5.30;;;14.00;99.90;;;;;;5093857;28;20406;-76
2023/06/05 07:36:41;;;;;;;13.00;5.20;;;14.10;99.90;;;;;;5095003;28;20224;-75
2023/06/05 07:39:07;;;;;;;9.73;4.90;;;14.20;99.90;;;;;;5077986;28;20373;-75
2023/06/05 07:41:33;;;;;;;9.50;5.00;;;14.10;99.90;;;;;;5093558;28;20135;-76
2023/06/05 07:43:58;;;;;;;13.23;6.10;;;14.20;99.90;;;;;;5094449;28;20043;-77
2023/06/05 07:46:24;;;;;;;8.43;4.68;;;14.10;99.90;;;;;;5094793;28;20051;-76
2023/06/05 07:48:50;;;;;;;10.05;4.60;;;14.20;99.90;;;;;;5078320;28;20067;-76
2023/06/05 07:51:18;;;;;;;10.55;4.60;;;14.30;99.90;;;;;;5095283;28;20051;-72
2023/06/05 07:53:44;;;;;;;9.57;4.97;;;14.40;99.90;;;;;;5095284;28;20044;-74
2023/06/05 07:56:11;;;;;;;10.10;5.22;;;14.30;99.90;;;;;;5094957;28;20048;-72
2023/06/05 07:58:39;;;;;;;10.55;4.55;;;14.30;99.90;;;;;;5093660;28;20104;-75
2023/06/05 08:01:06;;;;;;;9.38;4.53;;;14.30;99.90;;;;;;5093520;28;20051;-75
2023/06/05 08:03:33;;;;;;;8.07;3.72;;;14.50;99.90;;;;;;5094589;28;20052;-73
2023/06/05 08:05:59;;;;;;;8.20;3.67;;;14.70;99.90;;;;;;5094632;28;20051;-74
2023/06/05 08:08:24;;;;;;;8.13;3.60;;;14.80;99.90;;;;;;5093657;28;20044;-75
2023/06/05 08:10:51;;;;;;;8.98;3.80;;;14.80;99.90;;;;;;5094277;28;20044;-76
2023/06/05 08:13:17;;;;;;;8.15;3.33;;;15.00;99.90;;;;;;5095282;28;20040;-76
2023/06/05 08:15:42;;;;;;;8.90;4.05;;;15.10;99.90;;;;;;5094324;28;20116;-77
2023/06/05 08:18:08;;;;;;;7.75;3.53;;;15.20;99.90;;;;;;5094308;28;20054;-76
2023/06/05 08:20:34;;;;;;;7.85;3.83;;;15.20;99.90;;;;;;5075529;28;20052;-76
2023/06/05 08:23:01;;;;;;;9.70;4.07;;;15.20;99.90;;;;;;5094255;28;20051;-77
2023/06/05 08:25:27;;;;;;;6.82;3.47;;;15.30;99.90;;;;;;5093350;28;20466;-79
2023/06/05 08:27:53;;;;;;;10.90;3.50;;;15.30;99.90;;;;;;5094220;28;20120;-76
2023/06/05 08:30:19;;;;;;;7.75;4.00;;;15.30;99.90;;;;;;5093091;28;20124;-77
2023/06/05 08:32:46;;;;;;;9.97;3.57;;;15.40;99.90;;;;;;5094156;28;20051;-78
2023/06/05 08:35:12;;;;;;;7.63;3.28;;;15.50;99.90;;;;;;5092551;28;20074;-76
2023/06/05 08:37:38;;;;;;;6.40;3.08;;;15.40;99.90;;;;;;5093889;28;20080;-78
2023/06/05 08:40:11;;;;;;;7.40;2.90;;;15.50;99.90;;;;;;5092773;28;20094;-77
2023/06/05 08:42:38;;;;;;;6.85;3.22;;;15.60;99.90;;;;;;5092627;28;20040;-79
2023/06/05 08:45:07;;;;;;;8.48;3.45;;;15.80;99.90;;;;;;5075825;28;20036;-76
2023/06/05 08:47:36;;;;;;;7.90;3.53;;;15.80;99.90;;;;;;5075648;28;20113;-77
2023/06/05 08:50:08;;;;;;;5.53;2.60;;;15.80;99.90;;;;;;5092498;28;20044;-76
2023/06/05 08:52:36;;;;;;;7.72;2.90;;;15.90;99.90;;;;;;5093547;28;20595;-76
2023/06/05 08:55:04;;;;;;;8.65;3.67;;;16.00;99.90;;;;;;5076865;28;20048;-77
2023/06/05 08:57:33;;;;;;;9.05;3.25;;;15.90;99.90;;;;;;5076485;28;20478;-77
2023/06/05 09:00:00;;;;;;;7.22;2.88;;;16.10;99.90;;;;;;5092654;28;20106;-77
2023/06/05 09:02:26;;;;;;;6.47;3.25;;;16.20;99.90;;;;;;5075847;28;20473;-76
2023/06/05 09:04:52;;;;;;;6.47;2.70;;;16.30;99.90;;;;;;5092506;28;20075;-75
2023/06/05 09:07:18;;;;;;;8.15;3.20;;;16.30;99.90;;;;;;5093050;28;20083;-73
2023/06/05 09:09:44;;;;;;;5.47;2.70;;;16.40;99.90;;;;;;5092340;28;20083;-75
2023/06/05 09:12:10;;;;;;;6.00;2.47;;;16.50;99.90;;;;;;5093636;28;20059;-78
2023/06/05 09:14:35;;;;;;;10.52;2.55;;;16.60;99.90;;;;;;5092282;28;20040;-77
2023/06/05 09:17:03;;;;;;;5.95;2.67;;;16.80;99.90;;;;;;5075435;28;20497;-78
2023/06/05 09:19:37;;;;;;;6.03;2.90;;;16.70;99.90;;;;;;5103359;28;20047;-76
2023/06/05 09:22:05;;;;;;;7.18;3.28;;;16.90;99.90;;;;;;5095794;28;20044;-78
2023/06/05 09:24:31;;;;;;;7.05;2.63;;;16.70;99.90;;;;;;5096839;28;20131;-75
2023/06/05 09:27:06;;;;;;;81.65;4.75;;;16.90;99.90;;;;;;5096661;28;20082;-77
2023/06/05 09:29:36;;;;;;;7.88;2.78;;;17.10;99.90;;;;;;5079789;28;20093;-76
2023/06/05 09:32:23;;;;;;;6.90;2.60;;;17.00;99.90;;;;;;5113618;28;20045;-77
2023/06/05 09:35:05;;;;;;;6.50;2.65;;;17.00;99.90;;;;;;5095824;28;20070;-78
2023/06/05 09:37:35;;;;;;;7.15;2.88;;;17.30;99.90;;;;;;5115708;28;20068;-77
2023/06/05 09:40:01;;;;;;;8.65;2.92;;;17.30;99.90;;;;;;5099439;28;20470;-75
2023/06/05 09:42:35;;;;;;;6.10;2.80;;;17.50;99.90;;;;;;5099756;28;20393;-77
2023/06/05 09:45:01;;;;;;;8.68;2.97;;;17.40;99.90;;;;;;5099902;28;20099;-78
2023/06/05 09:47:27;;;;;;;6.97;2.60;;;17.40;99.90;;;;;;5117575;28;20051;-76
2023/06/05 09:49:53;;;;;;;6.15;2.95;;;17.60;99.90;;;;;;5099564;28;20051;-75
2023/06/05 09:52:19;;;;;;;6.68;3.00;;;17.60;99.90;;;;;;5099256;28;20046;-77
2023/06/05 09:54:46;;;;;;;7.27;2.73;;;17.60;99.90;;;;;;5117413;28;20044;-77
2023/06/05 09:57:14;;;;;;;5.82;2.50;;;17.60;99.90;;;;;;5099374;28;20320;-76
2023/06/05 09:59:46;;;;;;;6.03;2.80;;;17.70;99.90;;;;;;5118823;28;20093;-77
2023/06/05 10:02:16;;;;;;;6.03;2.58;;;;;;;;;;5120383;28;20496;-75
2023/06/05 10:04:55;;;;;;;7.35;2.05;;;;;;;;;;5099224;28;20050;-77
2023/06/05 10:07:21;;;;;;;4.72;2.20;;;;;;;;;;5098908;28;20045;-76
2023/06/05 10:09:49;;;;;;;5.60;2.40;;;;;;;;;;5117031;28;20131;-75
2023/06/05 10:12:16;;;;;;;8.02;2.53;;;;;;;;;;5082367;28;20297;-77
2023/06/05 10:14:42;;;;;;;5.07;2.38;;;;;;;;;;5099009;28;20467;-82
2023/06/05 10:17:09;;;;;;;6.93;2.28;;;;;;;;;;5098495;28;20507;-76
2023/06/05 10:19:36;;;;;;;6.15;2.00;;;;;;;;;;5098701;28;20112;-76
2023/06/05 10:22:02;;;;;;;;;;;;;;;;;;5117355;28;20066;-77
2023/06/05 10:24:33;;;;;;;6.95;2.22;;;;;;;;;;5116845;28;20008;-75
2023/06/05 10:27:00;;;;;;;6.82;2.60;;;;;;;;;;5098606;28;20087;-75
2023/06/05 10:29:38;;;;;;;7.57;2.20;;;;;;;;;;5115844;28;20069;-72
2023/06/05 10:32:18;;;;;;;5.82;2.33;;;;;;;;;;5098807;28;20164;-76
2023/06/05 10:34:59;;;;;;;4.78;2.25;;;;;;;;;;5098545;28;20052;-74
2023/06/05 10:37:45;;;;;;;4.53;1.80;;;;;;;;;;5116727;28;20047;-74
2023/06/05 10:40:11;;;;;;;4.78;2.10;;;;;;;;;;5098795;28;20097;-74
2023/06/05 10:42:37;;;;;;;4.30;2.03;;;;;;;;;;5116528;28;20130;-76
2023/06/05 10:45:05;;;;;;;5.60;1.92;;;;;;;;;;5116178;28;20512;-75
2023/06/05 10:47:35;;;;;;;4.80;1.50;;;;;;;;;;5097878;28;20122;-74
2023/06/05 10:50:16;;;;;;;3.63;1.90;;;;;;;;;;5097576;28;20443;-74
2023/06/05 10:52:43;;;;;;;5.68;1.73;;;;;;;;;;5116554;28;20047;-76
2023/06/05 10:55:11;;;;;;;4.72;1.58;;;;;;;;;;5116880;28;20127;-76
2023/06/05 10:57:55;;;;;;;4.47;1.73;;;;;;;;;;5116418;28;20047;-72
2023/06/05 11:00:21;;;;;;;3.63;1.63;;;;;;;;;;5098054;28;20086;-75
2023/06/05 11:02:48;;;;;;;3.72;1.70;;;;;;;;;;5116113;28;20052;-74
2023/06/05 11:05:15;;;;;;;4.40;1.90;;;;;;;;;;5116162;28;20051;-74
2023/06/05 11:07:45;;;;;;;5.25;2.08;;;;;;;;;;5080991;28;20056;-72
2023/06/05 11:10:21;;;;;;;4.88;1.83;;;;;;;;;;5099049;28;20063;-73
2023/06/05 11:12:47;;;;;;;4.35;1.60;;;;;;;;;;5116736;28;20057;-75
2023/06/05 11:15:14;;;;;;;7.43;1.90;;;;;;;;;;5116975;28;20051;-74
2023/06/05 11:17:42;;;;;;;3.65;1.70;;;;;;;;;;5099150;28;20316;-75
2023/06/05 11:20:28;;;;;;;4.68;1.70;;;;;;;;;;5115963;28;20066;-75
2023/06/05 11:22:57;;;;;;;;;;;;;;;;;;5084000;28;20511;-74
2023/06/05 11:25:26;;;;;;;3.95;1.73;;;;;;;;;;5115744;28;19944;-71
2023/06/05 11:27:58;;;;;;;5.25;1.98;;;;;;;;;;5115818;28;20396;-75
2023/06/05 11:30:28;;;;;;;5.65;1.85;;;;;;;;;;5115736;28;20063;-73
2023/06/05 11:32:58;;;;;;;6.47;2.30;;;;;;;;;;5116456;28;20048;-75
2023/06/05 11:35:30;;;;;;;6.28;1.83;;;;;;;;;;5097930;28;20044;-72
2023/06/05 11:38:08;;;;;;;5.90;1.90;;;;;;;;;;5115991;28;20039;-75
2023/06/05 11:40:35;;;;;;;5.28;1.77;;;;;;;;;;5115663;28;20074;-72
2023/06/05 11:43:11;;;;;;;3.97;1.70;;;;;;;;;;5097681;28;20082;-73
2023/06/05 11:45:39;;;;;;;4.05;1.48;;;;;;;;;;5097095;28;20035;-72
2023/06/05 11:48:06;;;;;;;3.78;1.60;;;;;;;;;;5115591;28;20086;-74
2023/06/05 11:50:32;;;;;;;4.30;1.70;;;;;;;;;;5096896;28;20044;-74
2023/06/05 11:53:05;;;;;;;5.85;1.75;;;;;;;;;;5097598;28;20370;-73
2023/06/05 11:58:22;;;;;;;6.25;2.05;;;;;;;;;;5115100;28;20051;-75
2023/06/05 12:00:48;;;;;;;7.28;1.85;;;;;;;;;;5114701;28;20048;-74
2023/06/05 12:03:21;;;;;;;4.68;1.77;;;;;;;;;;5096670;28;20176;-73
2023/06/05 12:05:48;;;;;;;5.03;2.15;;;;;;;;;;5097640;28;20079;-75
2023/06/05 12:08:30;;;;;;;8.60;1.60;;;;;;;;;;5097378;28;20048;-74
2023/06/05 12:10:56;;;;;;;4.75;1.80;;;;;;;;;;5096631;28;20043;-74
2023/06/05 12:13:22;;;;;;;7.28;1.85;;;;;;;;;;5096823;28;20055;-73
2023/06/05 12:16:01;;;;;;;3.55;1.90;;;;;;;;;;5096697;28;20048;-71
2023/06/05 12:18:34;;;;;;;5.18;1.90;;;;;;;;;;5098956;28;20122;-74
2023/06/05 12:21:00;;;;;;;6.95;1.98;;;;;;;;;;5099269;28;20058;-74
2023/06/05 12:23:26;;;;;;;5.25;1.58;;;;;;;;;;5080141;28;20057;-73
2023/06/05 12:25:59;;;;;;;3.63;1.35;;;;;;;;;;5114737;28;20043;-78
2023/06/05 12:28:31;;;;;;;6.55;2.13;;;;;;;;;;5115186;28;20123;-73
2023/06/05 12:30:58;;;;;;;6.10;1.90;;;;;;;;;;5114529;28;20449;-74
2023/06/05 12:33:25;;;;;;;4.55;2.13;;;;;;;;;;5079524;28;20134;-72
2023/06/05 12:36:23;;;;;;;4.95;1.85;;;;;;;;;;5114232;28;20051;-72
2023/06/05 12:38:49;;;;;;;5.72;1.88;;;;;;;;;;5052432;28;20139;-73
2023/06/05 12:41:16;;;;;;;3.85;1.70;;;;;;;;;;5096294;28;20500;-73
2023/06/05 12:43:42;;;;;;;6.65;2.28;;;;;;;;;;5079739;28;20065;-76
2023/06/05 12:46:08;;;;;;;6.97;1.88;;;;;;;;;;5096436;28;20072;-74
2023/06/05 12:48:35;;;;;;;4.50;1.88;;;;;;;;;;5114694;28;20047;-74
2023/06/05 12:51:01;;;;;;;6.05;2.05;;;;;;;;;;5114373;28;20401;-71
2023/06/05 12:53:27;;;;;;;7.10;2.00;;;;;;;;;;5114619;28;20393;-75
2023/06/05 12:55:53;;;;;;;5.43;1.75;;;;;;;;;;5096354;28;20044;-73
2023/06/05 12:58:19;;;;;;;5.47;1.50;;;;;;;;;;5114834;28;20399;-74
2023/06/05 13:00:46;;;;;;;5.43;1.80;;;;;;;;;;5079471;28;20051;-73
2023/06/05 13:03:12;;;;;;;6.95;1.77;;;;;;;;;;5114327;28;20104;-74
2023/06/05 13:05:38;;;;;;;4.97;2.25;;;;;;;;;;5114850;28;20040;-75
2023/06/05 13:08:06;;;;;;;3.55;1.52;;;;;;;;;;5115071;28;20044;-74
2023/06/05 13:10:32;;;;;;;7.57;2.85;;;;;;;;;;5115737;28;20109;-73
2023/06/05 13:12:58;;;;;;;3.28;1.50;;;;;;;;;;5113756;28;20164;-75
2023/06/05 13:15:24;;;;;;;4.68;2.17;;;;;;;;;;5096700;28;20049;-74
2023/06/05 13:17:51;;;;;;;5.70;1.90;;;;;;;;;;5113950;28;20051;-73
2023/06/05 13:20:17;;;;;;;4.03;1.55;;;;;;;;;;5095306;28;20394;-74